Time;durP1;ratioP1;P1;durP2;ratioP2;P2;SDS_P1;SDS_P2;PMS_P1;PMS_P2;Temp;Humidity;BMP_temperature;BMP_pressure;BME280_temperature;BME280_humidity;BME280_pressure;Samples;Min_cycle;Max_cycle;Signal;HPM_P1;HPM_P2
2021/05/24 00:00:00;;;;;;;3.03;1.10;;;;;;;;;;4973779;28;20187;-86
2021/05/24 00:02:26;;;;;;;1.97;1.33;;;;;;;;;;4979712;28;20184;-86
2021/05/24 00:04:53;;;;;;;1.63;1.00;;;;;;;;;;4972342;28;20203;-86
2021/05/24 00:07:19;;;;;;;1.53;1.30;;;;;;;;;;4972198;28;20172;-86
2021/05/24 00:09:45;;;;;;;1.87;1.27;;;;;;;;;;4971866;28;20266;-86
2021/05/24 00:12:11;;;;;;;2.63;1.40;;;;;;;;;;4973018;28;20267;-86
2021/05/24 00:14:39;;;;;;;1.40;0.87;;;;;;;;;;4983213;28;20294;-86
2021/05/24 00:17:05;;;;;;;1.27;1.17;;;;;;;;;;4986067;28;20330;-86
2021/05/24 00:19:31;;;;;;;1.53;1.10;;;;;;;;;;4972301;28;20619;-86
2021/05/24 00:21:57;;;;;;;2.50;1.17;;;;;;;;;;4972318;28;20236;-86
2021/05/24 00:24:24;;;;;;;2.60;1.10;;;;;;;;;;4969954;28;20207;-86
2021/05/24 00:26:50;;;;;;;1.67;1.07;;;;;;;;;;4972453;28;20175;-86
2021/05/24 00:29:19;;;;;;;1.47;1.10;;;;;;;;;;4984369;28;20180;-86
2021/05/24 00:31:45;;;;;;;1.07;1.00;;;;;;;;;;4972243;28;20183;-86
2021/05/24 00:34:12;;;;;;;1.77;1.43;;;;;;;;;;4981159;28;20192;-86
2021/05/24 00:36:38;;;;;;;1.50;1.07;;;;;;;;;;5062056;28;20177;-86
2021/05/24 00:39:07;;;;;;;1.53;1.03;;;;;;;;;;4973412;28;20196;-86
2021/05/24 00:41:33;;;;;;;1.23;1.13;;;;;;;;;;4965364;28;20547;-86
2021/05/24 00:44:00;;;;;;;1.50;1.10;;;;;;;;;;4968947;28;20531;-86
2021/05/24 00:46:26;;;;;;;1.63;1.10;;;;;;;;;;4955220;28;20741;-86
2021/05/24 00:48:52;;;;;;;1.30;1.20;;;;;;;;;;4974092;28;20176;-86
2021/05/24 00:51:18;;;;;;;1.20;1.10;;;;;;;;;;4975628;28;20271;-86
2021/05/24 00:53:44;;;;;;;2.17;1.30;;;;;;;;;;4975725;28;20271;-86
2021/05/24 00:56:10;;;;;;;1.03;0.97;;;;;;;;;;4976744;28;20209;-86
2021/05/24 00:58:36;;;;;;;1.03;0.97;;;;;;;;;;4972891;28;20207;-86
2021/05/24 01:01:02;;;;;;;3.33;1.27;;;;;;;;;;4990987;28;20196;-86
2021/05/24 01:03:28;;;;;;;1.27;1.07;;;;;;;;;;4975179;28;20172;-86
2021/05/24 01:05:54;;;;;;;1.55;1.30;;;;;;;;;;4977456;28;20426;-86
2021/05/24 01:08:20;;;;;;;1.00;1.00;;;;;;;;;;4973985;28;20180;-87
2021/05/24 01:10:46;;;;;;;3.77;1.10;;;;;;;;;;4975992;28;20180;-87
2021/05/24 01:13:15;;;;;;;1.10;1.00;;;;;;;;;;4979413;28;20240;-86
2021/05/24 01:15:44;;;;;;;3.33;1.30;;;;;;;;;;4975878;28;20184;-86
2021/05/24 01:18:10;;;;;;;2.13;1.20;;;;;;;;;;4971159;28;20288;-86
2021/05/24 01:20:37;;;;;;;1.73;1.00;;;;;;;;;;4969973;28;20222;-86
2021/05/24 01:25:30;;;;;;;1.17;1.07;;;;;;;;;;5076259;28;20212;-87
2021/05/24 01:27:56;;;;;;;1.17;1.07;;;;;;;;;;4968304;28;20261;-87
2021/05/24 01:30:23;;;;;;;1.30;1.00;;;;;;;;;;4956316;28;20181;-86
2021/05/24 01:32:49;;;;;;;1.17;0.90;;;;;;;;;;4975990;28;20250;-86
2021/05/24 01:35:15;;;;;;;1.07;1.00;;;;;;;;;;4976222;28;20187;-86
2021/05/24 01:37:41;;;;;;;1.63;1.00;;;;;;;;;;4974444;28;20653;-86
2021/05/24 01:40:07;;;;;;;1.20;0.90;;;;;;;;;;4976875;28;20184;-86
2021/05/24 01:42:34;;;;;;;2.40;1.17;;;;;;;;;;4999732;28;20180;-86
2021/05/24 01:45:00;;;;;;;1.57;1.10;;;;;;;;;;4973437;28;20215;-86
2021/05/24 01:47:26;;;;;;;1.13;1.00;;;;;;;;;;4977328;28;20601;-87
2021/05/24 01:49:52;;;;;;;1.10;1.00;;;;;;;;;;4969268;28;20181;-86
2021/05/24 01:52:19;;;;;;;1.20;1.10;;;;;;;;;;4966649;28;20180;-86
2021/05/24 01:54:46;;;;;;;1.20;1.10;;;;;;;;;;4975309;28;20203;-86
2021/05/24 01:57:12;;;;;;;0.97;0.90;;;;;;;;;;5009651;28;20190;-86
2021/05/24 01:59:38;;;;;;;1.83;0.90;;;;;;;;;;4956707;28;20244;-86
2021/05/24 02:02:05;;;;;;;2.23;1.23;;;;;;;;;;4964276;28;20184;-86
2021/05/24 02:04:31;;;;;;;1.70;1.20;;;;;;;;;;4987937;28;20219;-86
2021/05/24 02:06:57;;;;;;;1.67;1.27;;;;;;;;;;4978399;28;20473;-86
2021/05/24 02:09:24;;;;;;;1.20;0.90;;;;;;;;;;4976741;28;20207;-86
2021/05/24 02:11:50;;;;;;;1.10;1.00;;;;;;;;;;4974536;28;20615;-86
2021/05/24 02:14:16;;;;;;;2.13;1.30;;;;;;;;;;4975954;28;20176;-86
2021/05/24 02:16:44;;;;;;;4.67;1.10;;;;;;;;;;4963481;28;20232;-86
2021/05/24 02:19:11;;;;;;;2.97;0.90;;;;;;;;;;4968859;28;20564;-86
2021/05/24 02:21:38;;;;;;;2.43;1.13;;;;;;;;;;4971657;28;20209;-86
2021/05/24 02:24:05;;;;;;;1.33;0.80;;;;;;;;;;5007900;28;20200;-86
2021/05/24 02:26:31;;;;;;;1.37;1.23;;;;;;;;;;4974191;28;20218;-86
2021/05/24 02:28:57;;;;;;;2.77;1.10;;;;;;;;;;4973266;28;20546;-86
2021/05/24 02:31:24;;;;;;;1.53;1.30;;;;;;;;;;4973487;28;20274;-86
2021/05/24 02:33:50;;;;;;;2.33;1.00;;;;;;;;;;4973022;28;20187;-86
2021/05/24 02:36:16;;;;;;;1.27;1.17;;;;;;;;;;5064136;28;20623;-86
2021/05/24 02:38:43;;;;;;;1.20;1.10;;;;;;;;;;4999602;28;20188;-86
2021/05/24 02:41:09;;;;;;;1.40;1.07;;;;;;;;;;4975795;28;20207;-86
2021/05/24 02:43:35;;;;;;;1.10;1.00;;;;;;;;;;4971182;28;20525;-86
2021/05/24 02:46:01;;;;;;;3.90;1.60;;;;;;;;;;4972677;28;20306;-86
2021/05/24 02:48:27;;;;;;;1.33;1.17;;;;;;;;;;4976902;28;20286;-86
2021/05/24 02:50:53;;;;;;;2.20;1.00;;;;;;;;;;4975072;28;20172;-86
2021/05/24 02:53:19;;;;;;;7.07;1.00;;;;;;;;;;4976629;28;20176;-86
2021/05/24 02:55:45;;;;;;;2.27;1.10;;;;;;;;;;4962088;28;20218;-86
2021/05/24 02:58:11;;;;;;;1.10;1.00;;;;;;;;;;4974588;28;20187;-86
2021/05/24 03:00:37;;;;;;;1.77;1.40;;;;;;;;;;4973959;28;20184;-86
2021/05/24 03:03:03;;;;;;;0.87;0.77;;;;;;;;;;5008304;28;20195;-86
2021/05/24 03:05:29;;;;;;;2.43;0.87;;;;;;;;;;4962121;28;20268;-86
2021/05/24 03:07:55;;;;;;;4.00;0.90;;;;;;;;;;4981286;28;20317;-86
2021/05/24 03:10:24;;;;;;;2.97;1.00;;;;;;;;;;4969845;28;20271;-86
2021/05/24 03:12:50;;;;;;;0.87;0.87;;;;;;;;;;4973440;28;20207;-86
2021/05/24 03:15:17;;;;;;;0.70;0.70;;;;;;;;;;4962059;28;20255;-86
2021/05/24 03:17:43;;;;;;;1.40;0.90;;;;;;;;;;4964381;28;20220;-86
2021/05/24 03:20:10;;;;;;;1.00;0.90;;;;;;;;;;4968809;28;20598;-86
2021/05/24 03:22:37;;;;;;;1.63;0.90;;;;;;;;;;4971371;28;20184;-86
2021/05/24 03:25:03;;;;;;;2.20;0.97;;;;;;;;;;4976839;28;20195;-86
2021/05/24 03:27:29;;;;;;;1.70;0.97;;;;;;;;;;4993106;28;20528;-86
2021/05/24 03:29:56;;;;;;;1.17;1.00;;;;;;;;;;4963345;28;20189;-86
2021/05/24 03:32:22;;;;;;;1.90;1.10;;;;;;;;;;4976170;28;20175;-85
2021/05/24 03:34:48;;;;;;;1.43;1.10;;;;;;;;;;4970768;28;20198;-85
2021/05/24 03:37:14;;;;;;;2.20;1.10;;;;;;;;;;4982111;28;20248;-86
2021/05/24 03:39:40;;;;;;;1.60;1.10;;;;;;;;;;4971505;28;20524;-86
2021/05/24 03:42:06;;;;;;;0.93;0.83;;;;;;;;;;4971765;28;20194;-86
2021/05/24 03:44:32;;;;;;;0.97;0.93;;;;;;;;;;4971672;28;20200;-86
2021/05/24 03:46:58;;;;;;;1.20;0.87;;;;;;;;;;4973317;28;20191;-86
2021/05/24 03:49:24;;;;;;;2.13;1.03;;;;;;;;;;4974224;28;20234;-86
2021/05/24 03:51:50;;;;;;;1.50;1.00;;;;;;;;;;4968461;28;20890;-86
2021/05/24 03:54:16;;;;;;;1.10;0.97;;;;;;;;;;4973317;28;20188;-86
2021/05/24 03:56:42;;;;;;;0.90;0.90;;;;;;;;;;4967533;28;20588;-85
2021/05/24 03:59:08;;;;;;;1.80;0.90;;;;;;;;;;4965035;28;20646;-86
2021/05/24 04:01:37;;;;;;;1.23;1.13;;;;;;;;;;4962477;28;20184;-87
2021/05/24 04:04:04;;;;;;;1.47;0.87;;;;;;;;;;4972142;28;20196;-86
2021/05/24 04:06:30;;;;;;;2.40;1.00;;;;;;;;;;4972761;28;20180;-86
2021/05/24 04:08:56;;;;;;;1.00;0.87;;;;;;;;;;4976221;28;20195;-86
2021/05/24 04:11:22;;;;;;;1.90;1.13;;;;;;;;;;4984795;28;20190;-86
2021/05/24 04:13:54;;;;;;;1.20;1.03;;;;;;;;;;4974255;28;20191;-86
2021/05/24 04:16:20;;;;;;;2.10;1.17;;;;;;;;;;4976692;28;20236;-86
2021/05/24 04:18:48;;;;;;;1.20;0.90;;;;;;;;;;4976639;28;20176;-86
2021/05/24 04:21:15;;;;;;;0.93;0.93;;;;;;;;;;4973530;28;20267;-86
2021/05/24 04:23:41;;;;;;;0.93;0.87;;;;;;;;;;4979950;28;20184;-86
2021/05/24 04:26:08;;;;;;;1.10;1.00;;;;;;;;;;4970671;28;20187;-86
2021/05/24 04:28:34;;;;;;;2.43;1.20;;;;;;;;;;4965794;28;20283;-86
2021/05/24 04:31:00;;;;;;;0.90;0.90;;;;;;;;;;4966494;28;20168;-86
2021/05/24 04:33:26;;;;;;;1.17;0.87;;;;;;;;;;4981024;28;20184;-86
2021/05/24 04:35:53;;;;;;;2.40;1.00;;;;;;;;;;4974951;28;20215;-86
2021/05/24 04:38:19;;;;;;;1.87;1.20;;;;;;;;;;4975484;28;20194;-86
2021/05/24 04:40:46;;;;;;;2.20;1.10;;;;;;;;;;4975077;28;20217;-86
2021/05/24 04:43:13;;;;;;;1.25;1.00;;;;;;;;;;4974903;28;20430;-86
2021/05/24 04:45:39;;;;;;;0.97;0.97;;;;;;;;;;4969204;28;20204;-86
2021/05/24 04:48:05;;;;;;;1.30;0.97;;;;;;;;;;4973913;28;20184;-86
2021/05/24 04:50:31;;;;;;;1.03;0.93;;;;;;;;;;4962208;28;20203;-86
2021/05/24 04:52:57;;;;;;;0.80;0.80;;;;;;;;;;4963796;28;20184;-86
2021/05/24 04:55:24;;;;;;;1.27;1.17;;;;;;;;;;4973014;28;20188;-86
2021/05/24 04:57:50;;;;;;;2.23;1.00;;;;;;;;;;4973773;28;20180;-86
2021/05/24 05:00:16;;;;;;;2.43;1.03;;;;;;;;;;5027446;28;20615;-86
2021/05/24 05:02:43;;;;;;;1.17;0.90;;;;;;;;;;4971001;28;20287;-86
2021/05/24 05:05:09;;;;;;;1.67;1.00;;;;;;;;;;4970518;28;20199;-87
2021/05/24 05:07:35;;;;;;;1.67;0.90;;;;;;;;;;4966994;28;20238;-86
2021/05/24 05:10:02;;;;;;;1.30;1.20;;;;;;;;;;4974486;28;20203;-86
2021/05/24 05:12:29;;;;;;;1.07;0.90;;;;;;;;;;4966014;28;21256;-86
2021/05/24 05:14:55;;;;;;;2.50;1.10;;;;;;;;;;4974551;28;20191;-86
2021/05/24 05:17:22;;;;;;;1.20;0.90;;;;;;;;;;4976831;28;20230;-86
2021/05/24 05:19:48;;;;;;;1.27;1.00;;;;;;;;;;4973038;28;20191;-86
2021/05/24 05:22:14;;;;;;;1.97;1.20;;;;;;;;;;4972110;28;20550;-86
2021/05/24 05:24:40;;;;;;;1.07;0.97;;;;;;;;;;4968896;28;20595;-86
2021/05/24 05:27:06;;;;;;;2.20;0.93;;;;;;;;;;4963606;28;20404;-86
2021/05/24 05:29:32;;;;;;;2.10;1.20;;;;;;;;;;4960718;28;20657;-86
2021/05/24 05:31:59;;;;;;;1.43;0.90;;;;;;;;;;4972165;28;20181;-86
2021/05/24 05:34:25;;;;;;;1.03;0.80;;;;;;;;;;4966879;28;20184;-86
2021/05/24 05:36:51;;;;;;;1.13;0.90;;;;;;;;;;4972793;28;20194;-86
2021/05/24 05:39:17;;;;;;;3.50;1.57;;;;;;;;;;4981957;28;20186;-86
2021/05/24 05:41:44;;;;;;;2.13;1.20;;;;;;;;;;4986049;28;20183;-86
2021/05/24 05:44:10;;;;;;;1.97;1.30;;;;;;;;;;4968783;28;20658;-86
2021/05/24 05:46:36;;;;;;;3.33;1.00;;;;;;;;;;4973537;28;20211;-86
2021/05/24 05:49:03;;;;;;;2.50;1.30;;;;;;;;;;4973571;28;20544;-86
2021/05/24 05:51:29;;;;;;;1.53;0.97;;;;;;;;;;4973802;28;20279;-86
2021/05/24 05:53:56;;;;;;;2.03;1.27;;;;;;;;;;4971618;28;20682;-86
2021/05/24 05:56:22;;;;;;;2.60;1.17;;;;;;;;;;4996009;28;20188;-86
2021/05/24 05:58:48;;;;;;;2.47;1.43;;;;;;;;;;5017213;28;20191;-87
2021/05/24 06:01:14;;;;;;;1.13;0.90;;;;;;;;;;4984839;28;20599;-86
2021/05/24 06:03:40;;;;;;;1.30;0.93;;;;;;;;;;5077970;28;20557;-86
2021/05/24 06:06:06;;;;;;;1.37;1.00;;;;;;;;;;5076725;28;20275;-86
2021/05/24 06:08:32;;;;;;;1.67;1.13;;;;;;;;;;5049428;28;20237;-82
2021/05/24 06:10:58;;;;;;;3.27;1.10;;;;;;;;;;5049748;28;20185;-83
2021/05/24 06:13:28;;;;;;;2.33;1.80;;;;;;;;;;4974602;28;20599;-83
2021/05/24 06:15:55;;;;;;;3.20;1.30;;;;;;;;;;4951920;28;570626;-83
2021/05/24 06:18:21;;;;;;;2.07;1.07;;;;;;;;;;5001887;28;20168;-84
2021/05/24 06:20:47;;;;;;;3.93;1.30;;;;;;;;;;4996762;28;20702;-84
2021/05/24 06:23:14;;;;;;;5.03;1.20;;;;;;;;;;4993502;28;20238;-84
2021/05/24 06:25:41;;;;;;;2.07;1.13;;;;;;;;;;4998507;28;20331;-84
2021/05/24 06:28:07;;;;;;;3.43;1.33;;;;;;;;;;5009630;28;20234;-83
2021/05/24 06:30:33;;;;;;;2.17;1.10;;;;;;;;;;4979280;28;20242;-84
2021/05/24 06:33:00;;;;;;;1.13;1.03;;;;;;;;;;5005258;28;20176;-84
2021/05/24 06:35:26;;;;;;;2.77;1.17;;;;;;;;;;4974333;28;20209;-86
2021/05/24 06:37:52;;;;;;;1.60;0.93;;;;;;;;;;5006569;28;20192;-85
2021/05/24 06:40:18;;;;;;;2.00;1.13;;;;;;;;;;4971034;28;20203;-86
2021/05/24 06:42:44;;;;;;;2.20;1.07;;;;;;;;;;4976394;28;20184;-86
2021/05/24 06:45:11;;;;;;;2.20;0.97;;;;;;;;;;5075945;28;20322;-85
2021/05/24 06:47:37;;;;;;;0.90;0.90;;;;;;;;;;5029542;28;20183;-86
2021/05/24 06:50:04;;;;;;;1.73;0.97;;;;;;;;;;4982941;28;20232;-86
2021/05/24 06:52:30;;;;;;;1.20;1.10;;;;;;;;;;4973085;28;20187;-85
2021/05/24 06:54:56;;;;;;;1.60;1.30;;;;;;;;;;4972585;28;20179;-85
2021/05/24 06:57:22;;;;;;;2.53;1.10;;;;;;;;;;4975216;28;20532;-85
2021/05/24 06:59:48;;;;;;;4.43;1.03;;;;;;;;;;4974531;28;20203;-85
2021/05/24 07:02:16;;;;;;;1.97;1.00;;;;;;;;;;5008728;28;20180;-85
2021/05/24 07:04:43;;;;;;;2.00;1.10;;;;;;;;;;4994460;28;20291;-87
2021/05/24 07:07:09;;;;;;;2.20;1.00;;;;;;;;;;4970559;28;20194;-85
2021/05/24 07:09:35;;;;;;;2.00;1.40;;;;;;;;;;5003915;28;20179;-85
2021/05/24 07:12:01;;;;;;;1.93;0.90;;;;;;;;;;5007000;28;20286;-85
2021/05/24 07:14:28;;;;;;;1.73;1.00;;;;;;;;;;5009188;28;20272;-83
2021/05/24 07:16:55;;;;;;;2.90;1.10;;;;;;;;;;5036956;28;20297;-85
2021/05/24 07:19:21;;;;;;;2.43;1.13;;;;;;;;;;4978433;28;20184;-83
2021/05/24 07:21:47;;;;;;;1.90;1.00;;;;;;;;;;4975982;28;20189;-83
2021/05/24 07:24:13;;;;;;;2.20;1.23;;;;;;;;;;4975734;28;20195;-82
2021/05/24 07:26:39;;;;;;;1.43;1.33;;;;;;;;;;4997751;28;20187;-82
2021/05/24 07:29:05;;;;;;;2.37;0.97;;;;;;;;;;4972274;28;20184;-82
2021/05/24 07:31:31;;;;;;;5.07;1.43;;;;;;;;;;4979431;28;20579;-82
2021/05/24 07:33:57;;;;;;;1.53;1.23;;;;;;;;;;5002965;28;20241;-82
2021/05/24 07:39:04;;;;;;;2.10;1.30;;;;;;;;;;5131722;27;20554;-59
2021/05/24 07:41:30;;;;;;;2.70;1.37;;;;;;;;;;5123587;28;20708;-59
2021/05/24 07:43:56;;;;;;;2.97;1.10;;;;;;;;;;5125030;28;20186;-59
2021/05/24 07:46:22;;;;;;;2.40;1.17;;;;;;;;;;5101969;28;20175;-58
2021/05/24 07:48:48;;;;;;;2.93;1.27;;;;;;;;;;5120117;28;20633;-58
2021/05/24 07:51:14;;;;;;;1.15;0.90;;;;;;;;;;5126411;28;20394;-58
2021/05/24 07:53:40;;;;;;;2.60;1.20;;;;;;;;;;5106666;28;20177;-59
2021/05/24 07:56:07;;;;;;;1.97;0.87;;;;;;;;;;5128142;28;20726;-60
2021/05/24 07:58:33;;;;;;;1.93;1.10;;;;;;;;;;5119923;28;20205;-58
2021/05/24 08:00:59;;;;;;;1.63;1.03;;;;;;;;;;5110152;28;20167;-59
2021/05/24 08:03:25;;;;;;;1.23;0.90;;;;;;;;;;5108975;28;20187;-59
2021/05/24 08:05:51;;;;;;;1.40;1.00;;;;;;;;;;5109301;28;20174;-60
2021/05/24 08:08:17;;;;;;;0.83;0.80;;;;;;;;;;5105732;28;20178;-59
2021/05/24 08:10:43;;;;;;;1.43;0.90;;;;;;;;;;5092775;28;20228;-59
2021/05/24 08:13:09;;;;;;;2.17;1.17;;;;;;;;;;5099185;28;20175;-59
2021/05/24 08:15:35;;;;;;;2.73;1.47;;;;;;;;;;5077484;28;20486;-59
2021/05/24 08:18:09;;;;;;;1.63;1.00;;;;;;;;;;5082656;28;20733;-59
2021/05/24 08:20:36;;;;;;;2.93;1.30;;;;;;;;;;5103534;28;20178;-59
2021/05/24 08:23:02;;;;;;;3.50;1.13;;;;;;;;;;5082237;28;20543;-59
2021/05/24 08:25:28;;;;;;;1.67;1.27;;;;;;;;;;5102542;28;20499;-59
2021/05/24 08:27:57;;;;;;;2.17;1.10;;;;;;;;;;5093708;28;20191;-59
2021/05/24 08:30:23;;;;;;;3.30;1.43;;;;;;;;;;5083546;28;20191;-59
2021/05/24 08:32:49;;;;;;;1.80;1.30;;;;;;;;;;5088131;28;20223;-59
2021/05/24 08:35:15;;;;;;;3.93;1.27;;;;;;;;;;5079035;28;20266;-60
2021/05/24 08:37:41;;;;;;;2.60;1.23;;;;;;;;;;5077393;28;20211;-59
2021/05/24 08:40:08;;;;;;;1.07;0.77;;;;;;;;;;5084305;28;20171;-60
2021/05/24 08:42:37;;;;;;;3.80;0.90;;;;;;;;;;5080528;28;20186;-59
2021/05/24 08:45:04;;;;;;;2.40;1.20;;;;;;;;;;5100474;28;20202;-59
2021/05/24 08:47:31;;;;;;;1.50;1.00;;;;;;;;;;5101825;28;20224;-59
2021/05/24 08:50:00;;;;;;;1.63;1.00;;;;;;;;;;5064724;28;20176;-59
2021/05/24 08:52:30;;;;;;;1.70;1.10;;;;;;;;;;5056412;28;20192;-59
2021/05/24 08:54:56;;;;;;;2.10;0.87;;;;;;;;;;5088923;28;20640;-59
2021/05/24 08:57:22;;;;;;;1.73;1.30;;;;;;;;;;5089177;28;20239;-59
2021/05/24 08:59:48;;;;;;;1.30;0.70;;;;;;;;;;5091530;28;20199;-59
2021/05/24 09:02:14;;;;;;;2.87;1.40;;;;;;;;;;5085244;28;20721;-58
2021/05/24 09:04:43;;;;;;;1.80;0.97;;;;;;;;;;5082560;28;20176;-59
2021/05/24 09:07:10;;;;;;;2.77;1.40;;;;;;;;;;5076997;28;20184;-59
2021/05/24 09:09:36;;;;;;;2.23;0.97;;;;;;;;;;5071979;28;20269;-59
2021/05/24 09:12:05;;;;;;;3.27;1.30;;;;;;;;;;5079140;28;20187;-59
2021/05/24 09:14:32;;;;;;;2.10;1.27;;;;;;;;;;5082944;28;20573;-59
2021/05/24 09:16:58;;;;;;;2.20;1.07;;;;;;;;;;5073232;28;20587;-59
2021/05/24 09:19:24;;;;;;;1.40;1.10;;;;;;;;;;5091471;28;20638;-58
2021/05/24 09:21:50;;;;;;;1.10;1.00;;;;;;;;;;5090423;28;20184;-59
2021/05/24 09:24:28;;;;;;;3.87;1.10;;;;;;;;;;5090716;28;20645;-57
2021/05/24 09:26:54;;;;;;;1.30;1.10;;;;;;;;;;5080476;28;20214;-59
2021/05/24 09:29:24;;;;;;;2.37;1.00;;;;;;;;;;5086305;28;20175;-57
2021/05/24 09:32:08;;;;;;;3.70;1.23;;;;;;;;;;5089393;28;20362;-59
2021/05/24 09:34:35;;;;;;;2.47;1.00;;;;;;;;;;5084732;28;20183;-57
2021/05/24 09:37:01;;;;;;;4.23;1.27;;;;;;;;;;5091016;28;20211;-58
2021/05/24 09:39:31;;;;;;;3.40;1.60;;;;;;;;;;5091568;28;20311;-57
2021/05/24 09:42:00;;;;;;;2.47;1.27;;;;;;;;;;5090873;28;20182;-58
2021/05/24 09:44:28;;;;;;;2.20;1.00;;;;;;;;;;5091238;28;20179;-58
2021/05/24 09:46:54;;;;;;;2.37;1.10;;;;;;;;;;5090965;28;20178;-60
2021/05/24 09:49:24;;;;;;;2.20;1.20;;;;;;;;;;5071471;28;20172;-58
2021/05/24 09:51:51;;;;;;;3.77;1.27;;;;;;;;;;5090956;28;20176;-59
2021/05/24 09:54:17;;;;;;;1.43;1.10;;;;;;;;;;5091069;28;20176;-59
2021/05/24 09:56:46;;;;;;;1.50;0.90;;;;;;;;;;5073094;28;20641;-58
2021/05/24 09:59:13;;;;;;;1.83;1.73;;;;;;;;;;5090716;28;20172;-58
2021/05/24 10:01:46;;;;;;;3.80;1.53;;;;;;;;;;5090383;28;20205;-60
2021/05/24 10:04:13;;;;;;;1.87;0.93;;;;;;;;;;5095222;28;20586;-59
2021/05/24 10:06:39;;;;;;;1.03;0.90;;;;;;;;;;5064385;28;20172;-59
2021/05/24 10:09:07;;;;;;;1.87;1.07;;;;;;;;;;5070869;28;20551;-60
2021/05/24 10:11:33;;;;;;;1.90;1.10;;;;;;;;;;5090907;28;20635;-61
2021/05/24 10:14:00;;;;;;;1.77;1.27;;;;;;;;;;5070782;28;20204;-59
2021/05/24 10:16:31;;;;;;;1.80;1.00;;;;;;;;;;5088148;28;20192;-59
2021/05/24 10:18:57;;;;;;;1.57;1.13;;;;;;;;;;5087462;28;20519;-60
2021/05/24 10:21:23;;;;;;;1.53;1.00;;;;;;;;;;5091140;28;20872;-60
2021/05/24 10:23:51;;;;;;;2.37;1.07;;;;;;;;;;5092413;28;20626;-60
2021/05/24 10:26:18;;;;;;;1.53;1.17;;;;;;;;;;5087650;28;20263;-60
2021/05/24 10:28:46;;;;;;;4.10;1.33;;;;;;;;;;5088788;28;20195;-59
2021/05/24 10:31:19;;;;;;;2.03;1.03;;;;;;;;;;5079285;28;20226;-60
2021/05/24 10:33:46;;;;;;;2.93;1.53;;;;;;;;;;5086831;28;20764;-63
2021/05/24 10:36:20;;;;;;;3.37;1.37;;;;;;;;;;5066657;28;20266;-61
2021/05/24 10:39:04;;;;;;;3.47;1.20;;;;;;;;;;5086931;28;20226;-59
2021/05/24 10:41:47;;;;;;;3.50;1.07;;;;;;;;;;5087730;28;20183;-59
2021/05/24 10:44:37;;;;;;;2.67;1.40;;;;;;;;;;5082333;28;20272;-60
2021/05/24 10:47:16;;;;;;;3.60;1.50;;;;;;;;;;5083256;28;20171;-59
2021/05/24 10:50:03;;;;;;;1.67;1.10;;;;;;;;;;5078026;28;20629;-59
2021/05/24 10:52:30;;;;;;;3.37;1.63;;;;;;;;;;5063450;28;20188;-61
2021/05/24 10:54:56;;;;;;;1.40;1.10;;;;;;;;;;5070573;28;20188;-60
2021/05/24 10:57:22;;;;;;;5.20;1.40;;;;;;;;;;5084079;28;20210;-60
2021/05/24 10:59:50;;;;;;;1.90;1.27;;;;;;;;;;5085157;28;20184;-59
2021/05/24 11:02:26;;;;;;;4.37;1.30;;;;;;;;;;5081687;28;20180;-61
2021/05/24 11:05:00;;;;;;;2.42;1.30;;;;;;;;;;5071962;28;20421;-59
2021/05/24 11:07:30;;;;;;;2.53;1.40;;;;;;;;;;5088637;28;20176;-61
2021/05/24 11:10:15;;;;;;;1.77;1.10;;;;;;;;;;5089228;28;20309;-59
2021/05/24 11:12:42;;;;;;;2.73;1.20;;;;;;;;;;5090266;28;20206;-59
2021/05/24 11:15:10;;;;;;;2.17;1.07;;;;;;;;;;5082625;28;20273;-59
2021/05/24 11:17:55;;;;;;;1.63;1.23;;;;;;;;;;5088624;28;20204;-60
2021/05/24 11:20:31;;;;;;;1.83;1.03;;;;;;;;;;5089931;28;20167;-59
2021/05/24 11:23:07;;;;;;;4.13;1.43;;;;;;;;;;5087192;28;20190;-60
2021/05/24 11:25:55;;;;;;;2.13;1.93;;;;;;;;;;5082054;28;20175;-60
2021/05/24 11:28:31;;;;;;;2.60;1.60;;;;;;;;;;5082599;28;20230;-59
2021/05/24 11:31:17;;;;;;;2.97;1.60;;;;;;;;;;5070437;28;20175;-59
2021/05/24 11:33:50;;;;;;;3.10;1.60;;;;;;;;;;5089756;28;20175;-58
2021/05/24 11:36:17;;;;;;;1.50;1.07;;;;;;;;;;5068468;28;20282;-61
2021/05/24 11:39:02;;;;;;;1.70;1.30;;;;;;;;;;5078412;28;20195;-58
2021/05/24 11:41:30;;;;;;;2.20;1.40;;;;;;;;;;5073935;28;20173;-58
2021/05/24 11:43:56;;;;;;;0.90;0.90;;;;;;;;;;5074904;28;20668;-59
2021/05/24 11:46:23;;;;;;;2.00;1.47;;;;;;;;;;5072602;28;20173;-58
2021/05/24 11:48:50;;;;;;;5.83;1.40;;;;;;;;;;5083281;28;20178;-58
2021/05/24 11:51:16;;;;;;;3.37;1.63;;;;;;;;;;5076746;28;20184;-60
2021/05/24 11:54:03;;;;;;;2.53;1.30;;;;;;;;;;5088883;28;20266;-58
2021/05/24 11:56:45;;;;;;;2.13;1.03;;;;;;;;;;5063617;28;20228;-57
2021/05/24 11:59:13;;;;;;;1.43;1.33;;;;;;;;;;5083529;28;20226;-58
2021/05/24 12:01:40;;;;;;;3.10;1.47;;;;;;;;;;5088378;28;20184;-58
2021/05/24 12:04:07;;;;;;;1.43;1.23;;;;;;;;;;5089179;28;20209;-58
2021/05/24 12:06:59;;;;;;;1.37;1.27;;;;;;;;;;5071176;28;20172;-59
2021/05/24 12:09:33;;;;;;;4.30;1.37;;;;;;;;;;5065663;28;20208;-59
2021/05/24 12:12:00;;;;;;;2.00;1.40;;;;;;;;;;5088746;28;20632;-57
2021/05/24 12:14:26;;;;;;;2.40;1.37;;;;;;;;;;5076832;28;20291;-58
2021/05/24 12:16:53;;;;;;;1.57;1.40;;;;;;;;;;5075500;28;20212;-57
2021/05/24 12:19:20;;;;;;;3.80;1.67;;;;;;;;;;5077329;28;20172;-57
2021/05/24 12:21:47;;;;;;;3.37;1.40;;;;;;;;;;5069375;28;20185;-57
2021/05/24 12:24:13;;;;;;;3.03;1.40;;;;;;;;;;5063318;28;20177;-57
2021/05/24 12:26:45;;;;;;;2.03;1.47;;;;;;;;;;5075422;28;20177;-57
2021/05/24 12:29:11;;;;;;;2.50;2.20;;;;;;;;;;5083914;28;20172;-59
2021/05/24 12:31:45;;;;;;;3.20;1.93;;;;;;;;;;5081555;28;20292;-57
2021/05/24 12:34:15;;;;;;;2.17;1.30;;;;;;;;;;5080740;28;20186;-58
2021/05/24 12:36:59;;;;;;;2.60;1.50;;;;;;;;;;5080059;28;20664;-57
2021/05/24 12:39:26;;;;;;;2.07;1.20;;;;;;;;;;5076862;28;20195;-57
2021/05/24 12:41:55;;;;;;;1.50;1.23;;;;;;;;;;5077844;28;20191;-56
2021/05/24 12:44:23;;;;;;;1.63;1.30;;;;;;;;;;5091866;28;20172;-57
2021/05/24 12:46:51;;;;;;;1.70;1.37;;;;;;;;;;5082317;28;20263;-57
2021/05/24 12:49:20;;;;;;;1.87;1.20;;;;;;;;;;5084143;28;20293;-57
2021/05/24 12:51:55;;;;;;;4.33;1.90;;;;;;;;;;5087754;28;20642;-57
2021/05/24 12:54:21;;;;;;;3.50;1.60;;;;;;;;;;5090881;28;20164;-57
2021/05/24 12:56:47;;;;;;;1.33;1.20;;;;;;;;;;5085607;28;20662;-56
2021/05/24 12:59:13;;;;;;;2.33;1.60;;;;;;;;;;5090897;28;20191;-56
2021/05/24 13:01:39;;;;;;;1.30;0.97;;;;;;;;;;5073899;28;20212;-56
2021/05/24 13:04:06;;;;;;;1.43;1.30;;;;;;;;;;5089397;28;20176;-57
2021/05/24 13:06:48;;;;;;;1.67;1.07;;;;;;;;;;5093204;28;20211;-58
2021/05/24 13:09:21;;;;;;;1.33;1.20;;;;;;;;;;5089616;28;20213;-55
2021/05/24 13:11:49;;;;;;;1.20;1.10;;;;;;;;;;5080866;28;20580;-56
2021/05/24 13:14:28;;;;;;;1.47;1.37;;;;;;;;;;5086935;28;20207;-56
2021/05/24 13:19:57;;;;;;;1.13;1.10;;;;;;;;;;5088183;28;20288;-57
2021/05/24 13:30:31;;;;;;;1.50;1.30;;;;;;;;;;5084256;28;20187;-55
2021/05/24 13:32:57;;;;;;;2.17;1.07;;;;;;;;;;5062140;28;20728;-57
2021/05/24 13:35:28;;;;;;;2.23;1.50;;;;;;;;;;5083621;28;20179;-56
2021/05/24 13:37:54;;;;;;;1.53;1.30;;;;;;;;;;5080551;28;20687;-56
2021/05/24 13:40:21;;;;;;;1.10;1.10;;;;;;;;;;5084473;28;20180;-55
2021/05/24 13:42:48;;;;;;;2.00;1.20;;;;;;;;;;5087172;28;20526;-58
2021/05/24 13:45:14;;;;;;;1.03;0.90;;;;;;;;;;5090440;28;20183;-58
2021/05/24 13:47:45;;;;;;;2.50;1.37;;;;;;;;;;5086474;28;20169;-59
2021/05/24 13:50:12;;;;;;;2.93;1.20;;;;;;;;;;5062120;28;20251;-56
2021/05/24 13:52:38;;;;;;;3.03;1.10;;;;;;;;;;5087462;28;20199;-61
2021/05/24 13:55:06;;;;;;;3.00;1.60;;;;;;;;;;5068796;28;20219;-58
2021/05/24 13:57:32;;;;;;;2.60;0.90;;;;;;;;;;5089613;28;20199;-58
2021/05/24 13:59:58;;;;;;;1.33;0.90;;;;;;;;;;5084376;28;20180;-59
2021/05/24 14:02:25;;;;;;;1.20;1.10;;;;;;;;;;5085460;28;20543;-56
2021/05/24 14:04:51;;;;;;;1.83;1.20;;;;;;;;;;5089986;28;20179;-57
2021/05/24 14:07:18;;;;;;;1.50;0.97;;;;;;;;;;5068254;28;20290;-57
2021/05/24 14:09:44;;;;;;;1.00;1.00;;;;;;;;;;5077649;28;20656;-57
2021/05/24 14:12:10;;;;;;;1.30;0.93;;;;;;;;;;5077065;28;20706;-57
2021/05/24 14:14:36;;;;;;;1.27;0.90;;;;;;;;;;5083515;28;20594;-56
2021/05/24 14:17:02;;;;;;;3.63;1.00;;;;;;;;;;5067006;28;20276;-56
2021/05/24 14:19:28;;;;;;;1.20;0.70;;;;;;;;;;5090023;28;20233;-57
2021/05/24 14:21:54;;;;;;;1.03;0.93;;;;;;;;;;5076023;28;20708;-56
2021/05/24 14:24:20;;;;;;;0.83;0.83;;;;;;;;;;5089334;28;20561;-56
2021/05/24 14:26:46;;;;;;;1.40;0.80;;;;;;;;;;5088640;28;20183;-55
2021/05/24 14:29:14;;;;;;;0.70;0.70;;;;;;;;;;5082197;28;20701;-57
2021/05/24 14:31:40;;;;;;;1.00;0.73;;;;;;;;;;5083043;28;20184;-57
2021/05/24 14:34:06;;;;;;;1.10;0.90;;;;;;;;;;5086061;28;20630;-57
2021/05/24 14:36:32;;;;;;;1.23;1.00;;;;;;;;;;5082900;28;20191;-57
2021/05/24 14:38:58;;;;;;;1.30;0.83;;;;;;;;;;5088243;28;20227;-59
2021/05/24 14:41:24;;;;;;;0.80;0.80;;;;;;;;;;5090994;28;20587;-57
2021/05/24 14:43:50;;;;;;;0.90;0.90;;;;;;;;;;5083964;28;20754;-57
2021/05/24 14:46:17;;;;;;;0.87;0.87;;;;;;;;;;5091028;28;20236;-58
2021/05/24 14:48:43;;;;;;;0.93;0.93;;;;;;;;;;5088940;28;20183;-58
2021/05/24 14:51:09;;;;;;;1.20;1.10;;;;;;;;;;5072033;28;20441;-58
2021/05/24 14:53:35;;;;;;;2.10;1.07;;;;;;;;;;5086197;28;20249;-58
2021/05/24 14:56:04;;;;;;;2.27;1.20;;;;;;;;;;5078097;28;20172;-57
2021/05/24 14:58:30;;;;;;;1.20;1.10;;;;;;;;;;5076058;28;20192;-57
2021/05/24 15:00:57;;;;;;;1.10;1.03;;;;;;;;;;5072254;28;20184;-57